Spring Mount, Pennsylvania
Current Conditions -  °F | °C
As of 12:54 AM on Sunday 23 Nov 2014 (Local Time) from KPTW Reporting Station
Overcast Overcast  
Wind Chill: 40°   Ceiling: 11000
Heat Index: 40°   Visibility: 10mi
Dew Point: 21°   Wind: 0mph
Humidity: 47%   Direction: NA
Pressure: 30.22"   Gusts: NA
Location:  40.27°N, 75.47°W
Report Text: KPTW 230554Z AUTO 00000KT 10SM SCT080 OVC110 04/M06 A3022 RMK AO2 SLP234 T00441061 10050 20028 58006
Loading
Personal Weather Stations






























Interactive Weather Map New forecast layout! Learn more

10-Day Weather Forecast

Advertisements
Track Severe Weather on mobile